sensor_id;sensor_type;location;lat;lon;timestamp;pressure;altitude;pressure_sealevel;temperature;humidity
50282;BME280;36176;51.506;10.272;2023-05-09T00:01:50;99896.97;;;10.82;64.65
50282;BME280;36176;51.506;10.272;2023-05-09T00:04:17;99902.31;;;10.81;64.28
50282;BME280;36176;51.506;10.272;2023-05-09T00:06:44;99901.72;;;10.74;65.26
50282;BME280;36176;51.506;10.272;2023-05-09T00:09:11;99906.34;;;10.69;65.33
50282;BME280;36176;51.506;10.272;2023-05-09T00:11:38;99909.22;;;10.63;66.24
50282;BME280;36176;51.506;10.272;2023-05-09T00:14:05;99901.66;;;10.54;66.37
50282;BME280;36176;51.506;10.272;2023-05-09T00:16:34;99905.31;;;10.51;66.93
50282;BME280;36176;51.506;10.272;2023-05-09T00:19:02;99895.69;;;10.49;66.94
50282;BME280;36176;51.506;10.272;2023-05-09T00:21:30;99899.44;;;10.43;67.60
50282;BME280;36176;51.506;10.272;2023-05-09T00:23:57;99904.09;;;10.36;67.85
50282;BME280;36176;51.506;10.272;2023-05-09T00:26:24;99894.66;;;10.29;68.91
50282;BME280;36176;51.506;10.272;2023-05-09T00:28:52;99895.03;;;10.20;69.03
50282;BME280;36176;51.506;10.272;2023-05-09T00:31:19;99891.75;;;10.13;69.52
50282;BME280;36176;51.506;10.272;2023-05-09T00:33:46;99886.94;;;10.01;69.78
50282;BME280;36176;51.506;10.272;2023-05-09T00:36:14;99891.63;;;9.93;69.75
50282;BME280;36176;51.506;10.272;2023-05-09T00:38:41;99892.84;;;9.84;70.63
50282;BME280;36176;51.506;10.272;2023-05-09T00:41:08;99884.97;;;9.83;71.16
50282;BME280;36176;51.506;10.272;2023-05-09T03:28:00;99805.56;;;6.85;85.08
50282;BME280;36176;51.506;10.272;2023-05-09T03:30:30;99797.00;;;6.77;85.55
50282;BME280;36176;51.506;10.272;2023-05-09T03:43:44;99789.25;;;6.71;86.86
50282;BME280;36176;51.506;10.272;2023-05-09T03:46:12;99798.91;;;6.70;87.16
50282;BME280;36176;51.506;10.272;2023-05-09T03:48:41;99791.16;;;6.66;87.17
50282;BME280;36176;51.506;10.272;2023-05-09T03:51:08;99790.34;;;6.62;87.42
50282;BME280;36176;51.506;10.272;2023-05-09T03:53:36;99796.56;;;6.59;87.46
50282;BME280;36176;51.506;10.272;2023-05-09T03:56:15;99787.88;;;6.56;87.40
50282;BME280;36176;51.506;10.272;2023-05-09T03:58:42;99784.34;;;6.57;87.40
50282;BME280;36176;51.506;10.272;2023-05-09T04:01:09;99786.97;;;6.58;87.09
50282;BME280;36176;51.506;10.272;2023-05-09T04:03:36;99793.06;;;6.59;87.72
50282;BME280;36176;51.506;10.272;2023-05-09T04:06:04;99796.66;;;6.56;87.85
50282;BME280;36176;51.506;10.272;2023-05-09T04:08:51;99797.50;;;6.57;87.92
50282;BME280;36176;51.506;10.272;2023-05-09T04:11:37;99789.59;;;6.58;87.88
50282;BME280;36176;51.506;10.272;2023-05-09T04:14:05;99787.75;;;6.60;88.28
50282;BME280;36176;51.506;10.272;2023-05-09T04:16:33;99784.22;;;6.62;87.85
50282;BME280;36176;51.506;10.272;2023-05-09T04:19:00;99786.75;;;6.66;88.10
50282;BME280;36176;51.506;10.272;2023-05-09T04:21:27;99788.34;;;6.72;87.91
50282;BME280;36176;51.506;10.272;2023-05-09T04:23:54;99785.69;;;6.73;88.66
50282;BME280;36176;51.506;10.272;2023-05-09T04:26:21;99789.16;;;6.75;88.52
50282;BME280;36176;51.506;10.272;2023-05-09T04:28:50;99787.19;;;6.82;88.24
50282;BME280;36176;51.506;10.272;2023-05-09T04:31:18;99786.06;;;6.92;88.33
50282;BME280;36176;51.506;10.272;2023-05-09T04:33:45;99784.06;;;7.00;88.58
50282;BME280;36176;51.506;10.272;2023-05-09T04:36:12;99796.16;;;7.08;88.00
50282;BME280;36176;51.506;10.272;2023-05-09T04:38:40;99790.66;;;7.15;88.20
50282;BME280;36176;51.506;10.272;2023-05-09T04:41:07;99782.50;;;7.24;88.12
50282;BME280;36176;51.506;10.272;2023-05-09T04:43:34;99781.38;;;7.33;87.83
50282;BME280;36176;51.506;10.272;2023-05-09T04:46:01;99779.81;;;7.57;87.56
50282;BME280;36176;51.506;10.272;2023-05-09T04:48:28;99781.59;;;7.85;86.31
50282;BME280;36176;51.506;10.272;2023-05-09T04:50:55;99779.91;;;8.10;85.29
50282;BME280;36176;51.506;10.272;2023-05-09T04:53:23;99784.59;;;8.29;85.07
50282;BME280;36176;51.506;10.272;2023-05-09T04:55:50;99777.00;;;8.46;85.18
50282;BME280;36176;51.506;10.272;2023-05-09T04:58:17;99775.97;;;8.77;84.37
50282;BME280;36176;51.506;10.272;2023-05-09T05:00:45;99771.63;;;9.48;82.72
50282;BME280;36176;51.506;10.272;2023-05-09T05:03:12;99765.09;;;10.47;80.26
50282;BME280;36176;51.506;10.272;2023-05-09T05:05:40;99763.19;;;11.49;75.93
50282;BME280;36176;51.506;10.272;2023-05-09T05:08:08;99759.00;;;12.54;73.08
50282;BME280;36176;51.506;10.272;2023-05-09T05:10:35;99758.22;;;13.38;68.67
50282;BME280;36176;51.506;10.272;2023-05-09T05:13:02;99752.31;;;14.12;67.38
50282;BME280;36176;51.506;10.272;2023-05-09T05:15:29;99749.50;;;14.61;63.85
50282;BME280;36176;51.506;10.272;2023-05-09T05:17:59;99745.78;;;14.94;61.82
50282;BME280;36176;51.506;10.272;2023-05-09T05:20:26;99743.84;;;15.25;59.00
50282;BME280;36176;51.506;10.272;2023-05-09T05:22:53;99734.97;;;15.82;58.64
50282;BME280;36176;51.506;10.272;2023-05-09T05:25:20;99737.78;;;16.20;53.51
50282;BME280;36176;51.506;10.272;2023-05-09T05:27:48;99735.84;;;16.89;55.46
50282;BME280;36176;51.506;10.272;2023-05-09T05:30:15;99744.56;;;17.68;54.78
50282;BME280;36176;51.506;10.272;2023-05-09T05:32:42;99736.91;;;18.36;54.05
50282;BME280;36176;51.506;10.272;2023-05-09T05:35:09;99746.91;;;19.04;47.59
50282;BME280;36176;51.506;10.272;2023-05-09T05:37:40;99752.19;;;19.62;49.07
50282;BME280;36176;51.506;10.272;2023-05-09T05:40:07;99744.66;;;20.22;47.69
50282;BME280;36176;51.506;10.272;2023-05-09T05:42:34;99744.66;;;20.54;42.39
50282;BME280;36176;51.506;10.272;2023-05-09T05:45:01;99744.13;;;20.93;42.29
50282;BME280;36176;51.506;10.272;2023-05-09T05:47:33;99741.75;;;21.30;42.95
50282;BME280;36176;51.506;10.272;2023-05-09T05:50:01;99756.72;;;21.75;40.93
50282;BME280;36176;51.506;10.272;2023-05-09T05:52:31;99745.06;;;21.64;38.32
50282;BME280;36176;51.506;10.272;2023-05-09T05:54:58;99745.91;;;21.34;37.95
50282;BME280;36176;51.506;10.272;2023-05-09T05:57:25;99736.09;;;21.33;40.00
50282;BME280;36176;51.506;10.272;2023-05-09T05:59:52;99740.13;;;21.18;39.24
50282;BME280;36176;51.506;10.272;2023-05-09T06:02:19;99732.31;;;21.15;38.62
50282;BME280;36176;51.506;10.272;2023-05-09T06:04:47;99737.09;;;21.63;39.46
50282;BME280;36176;51.506;10.272;2023-05-09T06:07:14;99732.63;;;21.93;38.26
50282;BME280;36176;51.506;10.272;2023-05-09T06:09:41;99728.41;;;22.09;37.42
50282;BME280;36176;51.506;10.272;2023-05-09T06:12:08;99724.66;;;22.41;37.62
50282;BME280;36176;51.506;10.272;2023-05-09T06:14:35;99731.28;;;22.18;35.69
50282;BME280;36176;51.506;10.272;2023-05-09T06:17:02;99727.19;;;22.33;37.11
50282;BME280;36176;51.506;10.272;2023-05-09T06:19:29;99725.28;;;22.14;37.08
50282;BME280;36176;51.506;10.272;2023-05-09T06:21:56;99714.47;;;21.95;36.28
50282;BME280;36176;51.506;10.272;2023-05-09T06:24:23;99708.81;;;21.48;36.87
50282;BME280;36176;51.506;10.272;2023-05-09T06:27:01;99705.31;;;21.66;36.79
50282;BME280;36176;51.506;10.272;2023-05-09T06:29:29;99703.59;;;22.25;37.23
50282;BME280;36176;51.506;10.272;2023-05-09T06:31:58;99694.50;;;22.26;35.72
50282;BME280;36176;51.506;10.272;2023-05-09T06:34:31;99689.97;;;22.46;36.41
50282;BME280;36176;51.506;10.272;2023-05-09T06:37:01;99694.50;;;22.65;35.24
50282;BME280;36176;51.506;10.272;2023-05-09T06:39:28;99697.34;;;22.44;35.09
50282;BME280;36176;51.506;10.272;2023-05-09T06:41:55;99685.66;;;22.73;35.31
50282;BME280;36176;51.506;10.272;2023-05-09T06:44:22;99690.72;;;22.96;35.52
50282;BME280;36176;51.506;10.272;2023-05-09T06:46:53;99688.38;;;23.57;36.24
50282;BME280;36176;51.506;10.272;2023-05-09T06:49:19;99674.25;;;24.09;33.20
50282;BME280;36176;51.506;10.272;2023-05-09T06:51:48;99670.38;;;24.30;34.13
50282;BME280;36176;51.506;10.272;2023-05-09T06:54:15;99674.41;;;24.61;33.02
50282;BME280;36176;51.506;10.272;2023-05-09T06:56:43;99668.34;;;24.94;33.62
50282;BME280;36176;51.506;10.272;2023-05-09T06:59:18;99666.84;;;24.99;32.51
50282;BME280;36176;51.506;10.272;2023-05-09T07:01:51;99671.53;;;25.41;32.09
50282;BME280;36176;51.506;10.272;2023-05-09T07:04:21;99663.59;;;25.48;30.38
50282;BME280;36176;51.506;10.272;2023-05-09T07:06:51;99661.97;;;25.72;31.49
50282;BME280;36176;51.506;10.272;2023-05-09T07:09:25;99659.38;;;25.62;30.81
50282;BME280;36176;51.506;10.272;2023-05-09T07:11:58;99654.09;;;25.52;31.33
50282;BME280;36176;51.506;10.272;2023-05-09T07:14:25;99653.06;;;26.12;33.38
50282;BME280;36176;51.506;10.272;2023-05-09T07:16:52;99643.56;;;26.16;30.18
50282;BME280;36176;51.506;10.272;2023-05-09T07:19:28;99643.94;;;26.29;29.88
50282;BME280;36176;51.506;10.272;2023-05-09T07:21:55;99647.16;;;26.41;30.49
50282;BME280;36176;51.506;10.272;2023-05-09T07:24:23;99650.69;;;26.09;30.33
50282;BME280;36176;51.506;10.272;2023-05-09T07:26:50;99645.97;;;26.44;31.97
50282;BME280;36176;51.506;10.272;2023-05-09T07:29:17;99636.41;;;26.97;31.93
50282;BME280;36176;51.506;10.272;2023-05-09T07:31:45;99631.88;;;27.29;31.58
50282;BME280;36176;51.506;10.272;2023-05-09T07:34:14;99622.84;;;27.68;31.78
50282;BME280;36176;51.506;10.272;2023-05-09T07:36:42;99625.75;;;27.97;29.90
50282;BME280;36176;51.506;10.272;2023-05-09T07:39:09;99626.84;;;28.11;28.99
50282;BME280;36176;51.506;10.272;2023-05-09T07:41:36;99625.38;;;28.00;29.30
50282;BME280;36176;51.506;10.272;2023-05-09T07:44:03;99613.56;;;28.31;29.63
50282;BME280;36176;51.506;10.272;2023-05-09T07:46:31;99615.00;;;28.65;27.98
50282;BME280;36176;51.506;10.272;2023-05-09T07:48:59;99609.22;;;29.13;29.31
50282;BME280;36176;51.506;10.272;2023-05-09T07:51:26;99606.03;;;29.60;26.82
50282;BME280;36176;51.506;10.272;2023-05-09T07:53:55;99602.38;;;29.68;26.58
50282;BME280;36176;51.506;10.272;2023-05-09T07:56:22;99591.47;;;29.89;26.21
50282;BME280;36176;51.506;10.272;2023-05-09T07:58:49;99597.44;;;29.78;27.48
50282;BME280;36176;51.506;10.272;2023-05-09T08:01:17;99583.44;;;29.88;27.00
50282;BME280;36176;51.506;10.272;2023-05-09T08:03:44;99580.94;;;29.50;26.85
50282;BME280;36176;51.506;10.272;2023-05-09T08:06:13;99569.53;;;28.80;27.55
50282;BME280;36176;51.506;10.272;2023-05-09T08:08:40;99569.97;;;28.31;27.79
50282;BME280;36176;51.506;10.272;2023-05-09T08:11:07;99570.59;;;28.56;30.01
50282;BME280;36176;51.506;10.272;2023-05-09T08:13:34;99566.19;;;28.85;28.53
50282;BME280;36176;51.506;10.272;2023-05-09T08:16:10;99558.75;;;29.38;28.92
50282;BME280;36176;51.506;10.272;2023-05-09T08:18:37;99562.00;;;29.48;28.24
50282;BME280;36176;51.506;10.272;2023-05-09T08:21:05;99563.97;;;29.91;28.18
50282;BME280;36176;51.506;10.272;2023-05-09T08:23:32;99563.13;;;30.19;26.82
50282;BME280;36176;51.506;10.272;2023-05-09T08:26:00;99558.06;;;30.37;25.37
50282;BME280;36176;51.506;10.272;2023-05-09T08:28:27;99558.91;;;30.38;26.71
50282;BME280;36176;51.506;10.272;2023-05-09T08:30:54;99556.88;;;30.81;26.61
50282;BME280;36176;51.506;10.272;2023-05-09T08:33:22;99548.44;;;30.76;25.12
50282;BME280;36176;51.506;10.272;2023-05-09T08:35:52;99541.06;;;30.70;25.13
50282;BME280;36176;51.506;10.272;2023-05-09T08:38:19;99543.63;;;30.43;25.31
50282;BME280;36176;51.506;10.272;2023-05-09T08:40:47;99534.88;;;29.83;26.79
50282;BME280;36176;51.506;10.272;2023-05-09T08:43:14;99537.38;;;29.42;26.77
50282;BME280;36176;51.506;10.272;2023-05-09T08:45:44;99526.22;;;29.22;28.17
50282;BME280;36176;51.506;10.272;2023-05-09T08:48:16;99520.97;;;29.20;26.88
50282;BME280;36176;51.506;10.272;2023-05-09T08:50:44;99524.72;;;28.30;27.24
50282;BME280;36176;51.506;10.272;2023-05-09T08:53:13;99518.19;;;28.02;28.84
50282;BME280;36176;51.506;10.272;2023-05-09T08:55:40;99507.47;;;27.54;28.98
50282;BME280;36176;51.506;10.272;2023-05-09T08:58:08;99506.81;;;27.21;29.79
50282;BME280;36176;51.506;10.272;2023-05-09T09:00:35;99509.25;;;27.39;29.07
50282;BME280;36176;51.506;10.272;2023-05-09T09:03:04;99498.78;;;26.88;30.60
50282;BME280;36176;51.506;10.272;2023-05-09T09:05:32;99496.44;;;27.16;30.78
50282;BME280;36176;51.506;10.272;2023-05-09T09:08:18;99498.13;;;27.17;30.89
50282;BME280;36176;51.506;10.272;2023-05-09T09:10:45;99506.19;;;27.42;29.70
50282;BME280;36176;51.506;10.272;2023-05-09T09:13:13;99493.09;;;26.66;30.22
50282;BME280;36176;51.506;10.272;2023-05-09T09:15:44;99492.66;;;26.46;30.93
50282;BME280;36176;51.506;10.272;2023-05-09T09:18:20;99494.34;;;26.39;32.81
50282;BME280;36176;51.506;10.272;2023-05-09T09:20:58;99487.63;;;26.02;33.13
50282;BME280;36176;51.506;10.272;2023-05-09T09:23:27;99485.69;;;26.36;32.79
50282;BME280;36176;51.506;10.272;2023-05-09T09:25:58;99473.81;;;27.24;32.14
50282;BME280;36176;51.506;10.272;2023-05-09T09:28:26;99466.22;;;27.42;31.18
50282;BME280;36176;51.506;10.272;2023-05-09T09:30:54;99467.13;;;27.57;30.67
50282;BME280;36176;51.506;10.272;2023-05-09T09:33:21;99474.31;;;26.48;31.75
50282;BME280;36176;51.506;10.272;2023-05-09T09:35:49;99464.38;;;26.08;32.53
50282;BME280;36176;51.506;10.272;2023-05-09T09:38:17;99457.53;;;26.37;32.03
50282;BME280;36176;51.506;10.272;2023-05-09T09:41:03;99461.78;;;26.79;33.21
50282;BME280;36176;51.506;10.272;2023-05-09T09:43:30;99453.78;;;27.16;32.37
50282;BME280;36176;51.506;10.272;2023-05-09T09:46:01;99449.72;;;27.21;33.87
50282;BME280;36176;51.506;10.272;2023-05-09T09:48:32;99446.91;;;26.98;32.70
50282;BME280;36176;51.506;10.272;2023-05-09T09:51:09;99435.78;;;27.15;31.65
50282;BME280;36176;51.506;10.272;2023-05-09T09:53:37;99432.41;;;26.82;31.72
50282;BME280;36176;51.506;10.272;2023-05-09T09:56:05;99440.06;;;26.79;31.65
50282;BME280;36176;51.506;10.272;2023-05-09T09:58:32;99441.56;;;26.42;32.59
50282;BME280;36176;51.506;10.272;2023-05-09T10:01:06;99432.97;;;26.22;33.67
50282;BME280;36176;51.506;10.272;2023-05-09T10:03:36;99439.63;;;25.95;33.87
50282;BME280;36176;51.506;10.272;2023-05-09T10:06:03;99437.03;;;26.09;34.49
50282;BME280;36176;51.506;10.272;2023-05-09T10:08:31;99423.06;;;26.29;34.85
50282;BME280;36176;51.506;10.272;2023-05-09T10:11:12;99426.06;;;26.03;33.05
50282;BME280;36176;51.506;10.272;2023-05-09T10:13:41;99418.28;;;25.51;33.16
50282;BME280;36176;51.506;10.272;2023-05-09T10:16:11;99412.09;;;24.99;35.09
50282;BME280;36176;51.506;10.272;2023-05-09T10:18:39;99404.28;;;24.96;35.17
50282;BME280;36176;51.506;10.272;2023-05-09T10:21:12;99402.13;;;24.49;37.25
50282;BME280;36176;51.506;10.272;2023-05-09T10:23:41;99394.25;;;24.64;37.24
50282;BME280;36176;51.506;10.272;2023-05-09T10:26:15;99390.72;;;24.37;35.95
50282;BME280;36176;51.506;10.272;2023-05-09T10:28:44;99378.66;;;24.24;36.58
50282;BME280;36176;51.506;10.272;2023-05-09T10:31:14;99369.03;;;23.95;36.57
50282;BME280;36176;51.506;10.272;2023-05-09T10:33:45;99368.72;;;24.06;37.96
50282;BME280;36176;51.506;10.272;2023-05-09T10:36:14;99372.13;;;24.42;37.89
50282;BME280;36176;51.506;10.272;2023-05-09T10:38:43;99369.31;;;24.60;37.11
50282;BME280;36176;51.506;10.272;2023-05-09T10:41:10;99363.66;;;24.46;36.71
50282;BME280;36176;51.506;10.272;2023-05-09T10:43:43;99364.59;;;24.54;37.14
50282;BME280;36176;51.506;10.272;2023-05-09T10:46:11;99355.94;;;24.51;37.68
50282;BME280;36176;51.506;10.272;2023-05-09T10:48:38;99356.25;;;24.48;35.69
50282;BME280;36176;51.506;10.272;2023-05-09T10:51:09;99349.38;;;24.70;38.45
50282;BME280;36176;51.506;10.272;2023-05-09T10:53:46;99340.44;;;24.86;36.96
50282;BME280;36176;51.506;10.272;2023-05-09T10:56:32;99343.75;;;24.55;37.02
50282;BME280;36176;51.506;10.272;2023-05-09T10:59:01;99336.13;;;24.58;36.79
50282;BME280;36176;51.506;10.272;2023-05-09T11:01:31;99327.88;;;24.76;38.31
50282;BME280;36176;51.506;10.272;2023-05-09T11:04:06;99312.50;;;24.93;36.62
50282;BME280;36176;51.506;10.272;2023-05-09T11:09:28;99313.19;;;24.95;36.42
50282;BME280;36176;51.506;10.272;2023-05-09T11:11:57;99308.94;;;24.93;36.46
50282;BME280;36176;51.506;10.272;2023-05-09T11:14:30;99313.00;;;25.13;36.46
50282;BME280;36176;51.506;10.272;2023-05-09T11:17:00;99302.34;;;25.36;37.44
50282;BME280;36176;51.506;10.272;2023-05-09T11:19:37;99296.91;;;25.53;35.60
50282;BME280;36176;51.506;10.272;2023-05-09T11:22:23;99296.03;;;25.11;35.84
50282;BME280;36176;51.506;10.272;2023-05-09T11:25:01;99285.72;;;25.07;35.83
50282;BME280;36176;51.506;10.272;2023-05-09T11:27:43;99285.72;;;24.98;35.83
50282;BME280;36176;51.506;10.272;2023-05-09T11:30:12;99271.16;;;24.91;37.20
50282;BME280;36176;51.506;10.272;2023-05-09T11:32:41;99278.09;;;25.02;37.17
50282;BME280;36176;51.506;10.272;2023-05-09T11:35:10;99273.69;;;25.09;37.99
50282;BME280;36176;51.506;10.272;2023-05-09T11:37:48;99262.31;;;25.14;36.48
50282;BME280;36176;51.506;10.272;2023-05-09T11:40:16;99259.31;;;25.25;36.94
50282;BME280;36176;51.506;10.272;2023-05-09T11:42:45;99258.13;;;25.19;35.18
50282;BME280;36176;51.506;10.272;2023-05-09T11:45:13;99261.69;;;25.12;36.32
50282;BME280;36176;51.506;10.272;2023-05-09T11:47:41;99255.41;;;25.03;36.02
50282;BME280;36176;51.506;10.272;2023-05-09T11:50:08;99253.88;;;25.00;37.67
50282;BME280;36176;51.506;10.272;2023-05-09T11:52:36;99250.84;;;25.12;37.02
50282;BME280;36176;51.506;10.272;2023-05-09T11:55:07;99244.41;;;25.29;37.61
50282;BME280;36176;51.506;10.272;2023-05-09T11:57:42;99246.03;;;25.46;36.36
50282;BME280;36176;51.506;10.272;2023-05-09T12:00:10;99240.50;;;25.23;35.96
50282;BME280;36176;51.506;10.272;2023-05-09T12:02:37;99242.03;;;24.93;35.90
50282;BME280;36176;51.506;10.272;2023-05-09T12:05:05;99239.31;;;24.85;38.90
50282;BME280;36176;51.506;10.272;2023-05-09T12:07:33;99237.63;;;24.84;38.64
50282;BME280;36176;51.506;10.272;2023-05-09T12:10:00;99232.38;;;24.82;39.33
50282;BME280;36176;51.506;10.272;2023-05-09T12:12:32;99226.78;;;25.00;38.29
50282;BME280;36176;51.506;10.272;2023-05-09T12:15:04;99220.66;;;25.31;38.85
50282;BME280;36176;51.506;10.272;2023-05-09T12:17:31;99228.75;;;25.47;38.39
50282;BME280;36176;51.506;10.272;2023-05-09T12:19:58;99210.47;;;25.41;36.85
50282;BME280;36176;51.506;10.272;2023-05-09T12:22:27;99215.94;;;25.33;38.40
50282;BME280;36176;51.506;10.272;2023-05-09T12:24:55;99214.84;;;25.42;38.36
50282;BME280;36176;51.506;10.272;2023-05-09T12:27:24;99214.56;;;25.29;38.08
50282;BME280;36176;51.506;10.272;2023-05-09T12:29:54;99204.06;;;25.10;37.73
50282;BME280;36176;51.506;10.272;2023-05-09T12:32:21;99194.59;;;24.89;36.89
50282;BME280;36176;51.506;10.272;2023-05-09T12:34:48;99195.47;;;24.81;38.68
50282;BME280;36176;51.506;10.272;2023-05-09T12:37:17;99197.50;;;24.96;39.16
50282;BME280;36176;51.506;10.272;2023-05-09T12:39:59;99189.69;;;25.01;36.77
50282;BME280;36176;51.506;10.272;2023-05-09T12:42:26;99190.66;;;25.16;38.38
50282;BME280;36176;51.506;10.272;2023-05-09T12:44:55;99178.59;;;25.43;36.65
50282;BME280;36176;51.506;10.272;2023-05-09T12:47:26;99168.44;;;25.37;36.52
50282;BME280;36176;51.506;10.272;2023-05-09T12:49:57;99182.41;;;24.93;37.51
50282;BME280;36176;51.506;10.272;2023-05-09T12:52:31;99181.41;;;24.70;38.16
50282;BME280;36176;51.506;10.272;2023-05-09T12:55:04;99176.16;;;24.68;37.82
50282;BME280;36176;51.506;10.272;2023-05-09T12:57:34;99177.19;;;24.59;38.27
50282;BME280;36176;51.506;10.272;2023-05-09T13:00:02;99171.94;;;24.49;37.85
50282;BME280;36176;51.506;10.272;2023-05-09T13:02:33;99164.13;;;24.38;37.68
50282;BME280;36176;51.506;10.272;2023-05-09T13:05:05;99158.56;;;24.48;38.15
50282;BME280;36176;51.506;10.272;2023-05-09T13:10:15;99151.28;;;24.81;37.09
50282;BME280;36176;51.506;10.272;2023-05-09T13:12:45;99148.88;;;24.37;38.88
50282;BME280;36176;51.506;10.272;2023-05-09T13:15:14;99152.47;;;24.37;39.53
50282;BME280;36176;51.506;10.272;2023-05-09T13:17:42;99135.72;;;24.58;39.73
50282;BME280;36176;51.506;10.272;2023-05-09T13:20:09;99130.28;;;24.58;37.52
50282;BME280;36176;51.506;10.272;2023-05-09T13:22:36;99141.59;;;24.13;37.51
50282;BME280;36176;51.506;10.272;2023-05-09T13:25:04;99130.16;;;23.68;38.49
50282;BME280;36176;51.506;10.272;2023-05-09T13:27:31;99122.00;;;23.52;39.24
50282;BME280;36176;51.506;10.272;2023-05-09T13:29:58;99123.84;;;23.51;40.39
50282;BME280;36176;51.506;10.272;2023-05-09T13:32:25;99118.31;;;23.27;39.98
50282;BME280;36176;51.506;10.272;2023-05-09T13:34:53;99123.97;;;23.07;41.26
50282;BME280;36176;51.506;10.272;2023-05-09T13:37:20;99123.03;;;23.17;41.79
50282;BME280;36176;51.506;10.272;2023-05-09T13:39:47;99118.16;;;22.94;40.31
50282;BME280;36176;51.506;10.272;2023-05-09T13:42:14;99105.91;;;22.82;41.42
50282;BME280;36176;51.506;10.272;2023-05-09T13:44:44;99101.56;;;22.89;40.53
50282;BME280;36176;51.506;10.272;2023-05-09T13:47:11;99099.50;;;23.09;40.02
50282;BME280;36176;51.506;10.272;2023-05-09T13:49:38;99091.91;;;23.47;39.06
50282;BME280;36176;51.506;10.272;2023-05-09T13:52:05;99088.41;;;23.71;40.54
50282;BME280;36176;51.506;10.272;2023-05-09T13:54:32;99089.66;;;23.93;39.50
50282;BME280;36176;51.506;10.272;2023-05-09T13:57:01;99079.69;;;24.02;39.09
50282;BME280;36176;51.506;10.272;2023-05-09T13:59:29;99080.50;;;23.94;38.95
50282;BME280;36176;51.506;10.272;2023-05-09T14:01:57;99072.69;;;23.66;38.63
50282;BME280;36176;51.506;10.272;2023-05-09T14:04:26;99073.28;;;23.44;40.01
50282;BME280;36176;51.506;10.272;2023-05-09T14:06:53;99065.56;;;23.49;41.77
50282;BME280;36176;51.506;10.272;2023-05-09T14:09:20;99053.13;;;23.89;38.94
50282;BME280;36176;51.506;10.272;2023-05-09T14:11:48;99054.81;;;24.23;38.27
50282;BME280;36176;51.506;10.272;2023-05-09T14:14:17;99048.03;;;24.35;38.54
50282;BME280;36176;51.506;10.272;2023-05-09T14:16:44;99032.47;;;24.37;38.09
50282;BME280;36176;51.506;10.272;2023-05-09T14:19:13;99039.28;;;24.16;37.57
50282;BME280;36176;51.506;10.272;2023-05-09T14:21:43;99025.72;;;23.92;39.74
50282;BME280;36176;51.506;10.272;2023-05-09T14:24:10;99038.25;;;23.76;41.93
50282;BME280;36176;51.506;10.272;2023-05-09T14:26:41;99024.31;;;23.55;39.79
50282;BME280;36176;51.506;10.272;2023-05-09T14:29:08;99017.34;;;23.36;40.96
50282;BME280;36176;51.506;10.272;2023-05-09T14:31:35;99011.25;;;23.34;39.33
50282;BME280;36176;51.506;10.272;2023-05-09T14:34:02;99015.81;;;23.25;39.44
50282;BME280;36176;51.506;10.272;2023-05-09T14:36:31;99009.47;;;23.00;39.87
50282;BME280;36176;51.506;10.272;2023-05-09T14:38:58;99007.00;;;22.89;39.68
50282;BME280;36176;51.506;10.272;2023-05-09T14:41:25;99003.13;;;22.83;40.26
50282;BME280;36176;51.506;10.272;2023-05-09T14:43:52;98999.47;;;22.58;40.35
50282;BME280;36176;51.506;10.272;2023-05-09T14:46:19;98999.41;;;22.50;40.85
50282;BME280;36176;51.506;10.272;2023-05-09T14:48:49;98993.31;;;22.48;42.06
50282;BME280;36176;51.506;10.272;2023-05-09T14:51:16;98990.72;;;22.38;41.70
50282;BME280;36176;51.506;10.272;2023-05-09T14:53:43;98991.41;;;22.40;42.15
50282;BME280;36176;51.506;10.272;2023-05-09T14:56:10;98991.75;;;22.37;41.06
50282;BME280;36176;51.506;10.272;2023-05-09T14:58:37;98977.34;;;22.28;40.88
50282;BME280;36176;51.506;10.272;2023-05-09T15:01:04;98978.59;;;22.34;41.87
50282;BME280;36176;51.506;10.272;2023-05-09T15:03:31;98964.31;;;22.50;41.13
50282;BME280;36176;51.506;10.272;2023-05-09T15:05:59;98975.94;;;22.50;40.40
50282;BME280;36176;51.506;10.272;2023-05-09T15:08:26;98963.69;;;22.56;41.20
50282;BME280;36176;51.506;10.272;2023-05-09T15:10:53;98972.00;;;22.63;40.73
50282;BME280;36176;51.506;10.272;2023-05-09T15:13:20;98968.75;;;22.59;41.03
50282;BME280;36176;51.506;10.272;2023-05-09T15:15:48;98969.22;;;22.55;40.46
50282;BME280;36176;51.506;10.272;2023-05-09T15:18:18;98958.22;;;22.48;41.49
50282;BME280;36176;51.506;10.272;2023-05-09T15:20:47;98961.41;;;22.43;40.64
50282;BME280;36176;51.506;10.272;2023-05-09T15:23:14;98954.28;;;22.34;41.09
50282;BME280;36176;51.506;10.272;2023-05-09T15:25:41;98952.00;;;22.21;41.68
50282;BME280;36176;51.506;10.272;2023-05-09T15:28:08;98944.16;;;22.10;41.53
50282;BME280;36176;51.506;10.272;2023-05-09T15:30:35;98941.25;;;22.03;40.82
50282;BME280;36176;51.506;10.272;2023-05-09T15:33:04;98933.16;;;22.03;41.90
50282;BME280;36176;51.506;10.272;2023-05-09T15:35:31;98938.22;;;22.06;41.67
50282;BME280;36176;51.506;10.272;2023-05-09T15:37:58;98940.56;;;22.01;41.06
50282;BME280;36176;51.506;10.272;2023-05-09T15:40:25;98933.16;;;22.03;40.86
50282;BME280;36176;51.506;10.272;2023-05-09T15:42:52;98930.28;;;22.05;40.80
50282;BME280;36176;51.506;10.272;2023-05-09T15:45:19;98931.53;;;22.11;41.80
50282;BME280;36176;51.506;10.272;2023-05-09T15:47:46;98936.25;;;22.17;41.37
50282;BME280;36176;51.506;10.272;2023-05-09T15:50:13;98925.47;;;22.17;42.11
50282;BME280;36176;51.506;10.272;2023-05-09T15:52:41;98920.25;;;22.15;41.52
50282;BME280;36176;51.506;10.272;2023-05-09T15:55:08;98921.44;;;22.13;40.14
50282;BME280;36176;51.506;10.272;2023-05-09T15:57:36;98911.09;;;22.08;40.06
50282;BME280;36176;51.506;10.272;2023-05-09T16:00:03;98920.41;;;22.14;40.96